createdAt,value
2022-09-23T11:01:47.680Z,21.75
2022-09-23T11:03:38.693Z,17.60
2022-09-23T11:05:15.273Z,21.00
2022-09-23T11:06:49.801Z,22.00
2022-09-23T11:08:38.161Z,23.00
2022-09-23T11:10:23.243Z,22.00
2022-09-23T11:12:10.595Z,19.00
2022-09-23T11:14:01.075Z,18.80
2022-09-23T11:15:35.969Z,21.40
2022-09-23T11:17:19.447Z,20.20
2022-09-23T11:19:34.176Z,18.20
2022-09-23T11:21:26.522Z,28.20
2022-09-23T11:23:20.251Z,24.00
2022-09-23T11:25:05.105Z,23.80
2022-09-23T11:26:53.122Z,17.20
2022-09-23T11:28:43.853Z,19.20
2022-09-23T11:30:17.176Z,55.40
2022-09-23T11:32:14.308Z,481.40
2022-09-23T11:33:57.688Z,280.50
2022-09-23T11:35:39.105Z,227.33
2022-09-23T11:37:22.227Z,174.75
2022-09-23T11:38:54.759Z,155.25
2022-09-23T11:40:36.567Z,145.50
2022-09-23T11:42:13.919Z,143.50
2022-09-23T11:43:51.449Z,155.25
2022-09-23T11:45:26.892Z,134.00
2022-09-23T11:47:02.002Z,152.75
2022-09-23T11:48:48.011Z,135.50
2022-09-23T11:50:25.964Z,137.50
2022-09-23T11:52:12.916Z,152.00
2022-09-23T11:54:20.683Z,146.25
2022-09-23T11:56:06.745Z,159.75
2022-09-23T11:57:57.451Z,182.25
2022-09-23T11:59:46.280Z,182.50
2022-09-23T12:01:34.893Z,180.00
2022-09-23T12:03:23.243Z,208.00
2022-09-23T12:05:06.758Z,171.00
2022-09-23T12:06:46.543Z,183.75
2022-09-23T12:08:25.580Z,187.75
2022-09-23T12:10:04.068Z,212.00
2022-09-23T12:11:49.088Z,205.25
2022-09-23T12:13:43.585Z,229.00
2022-09-23T12:15:22.363Z,232.67
2022-09-23T12:17:09.241Z,219.00
2022-09-23T12:18:42.194Z,213.00
2022-09-23T12:20:13.757Z,237.67
2022-09-23T12:21:56.668Z,219.67
2022-09-23T12:23:28.279Z,225.00
2022-09-23T12:25:26.642Z,226.33
2022-09-23T12:27:00.367Z,238.00
2022-09-23T12:28:37.709Z,207.75
2022-09-23T12:30:16.894Z,219.50
2022-09-23T12:31:49.790Z,195.00
2022-09-23T12:33:24.877Z,218.50
2022-09-23T12:34:56.636Z,216.50
2022-09-23T12:36:34.792Z,225.33
2022-09-23T12:38:21.670Z,206.50
2022-09-23T12:39:53.355Z,200.75
2022-09-23T12:41:38.641Z,223.25
2022-09-23T12:43:36.450Z,196.75
2022-09-23T12:45:28.159Z,205.50
2022-09-23T12:47:15.126Z,202.75
2022-09-23T12:48:54.497Z,210.25
2022-09-23T12:50:51.100Z,195.50
2022-09-23T12:52:30.935Z,189.50
2022-09-23T12:54:05.538Z,202.25
2022-09-23T12:55:40.023Z,191.75
2022-09-23T12:57:11.787Z,184.25
2022-09-23T12:58:43.353Z,181.25
2022-09-23T13:00:22.760Z,156.50
2022-09-23T13:01:54.585Z,171.25
2022-09-23T13:03:44.658Z,176.50
2022-09-23T13:05:38.927Z,190.75
2022-09-23T13:07:10.560Z,177.25
2022-09-23T13:08:42.213Z,167.25
2022-09-23T13:10:28.135Z,168.00
2022-09-23T13:12:01.467Z,166.25
2022-09-23T13:13:34.991Z,177.25
2022-09-23T13:15:33.170Z,175.50
2022-09-23T13:17:04.878Z,169.00
2022-09-23T13:19:01.353Z,155.25
2022-09-23T13:20:38.320Z,165.00
2022-09-23T13:22:11.068Z,170.50
2022-09-23T13:23:50.554Z,179.00
2022-09-23T13:25:23.368Z,166.25
2022-09-23T13:26:57.391Z,167.00
2022-09-23T13:28:54.562Z,168.50
2022-09-23T13:30:26.941Z,161.00
2022-09-23T13:31:58.895Z,184.50
2022-09-23T13:33:50.596Z,157.25
2022-09-23T13:35:27.259Z,149.25
2022-09-23T13:36:58.939Z,153.50
2022-09-23T13:38:34.046Z,157.25
2022-09-23T13:40:29.870Z,162.75
2022-09-23T13:42:03.065Z,164.50
2022-09-23T13:43:41.439Z,158.00
2022-09-23T13:45:17.951Z,180.75
2022-09-23T13:46:51.770Z,227.67
2022-09-23T13:48:23.930Z,235.00
2022-09-23T13:49:55.733Z,233.33
2022-09-23T13:51:34.047Z,231.00
2022-09-23T13:53:10.836Z,205.50
2022-09-23T13:54:49.669Z,157.00
2022-09-23T13:56:21.957Z,145.50
2022-09-23T13:58:04.688Z,143.75
2022-09-23T13:59:41.870Z,147.75
2022-09-23T14:01:34.170Z,152.00
2022-09-23T14:03:36.812Z,140.75
2022-09-23T14:05:13.320Z,125.25
2022-09-23T14:06:45.071Z,126.00
2022-09-23T14:08:16.814Z,127.60
2022-09-23T14:09:49.924Z,132.50
2022-09-23T14:11:35.507Z,123.25
2022-09-23T14:13:07.251Z,133.40
2022-09-23T14:14:40.145Z,137.50
2022-09-23T14:16:15.049Z,139.75
2022-09-23T14:17:48.001Z,133.75
2022-09-23T14:19:23.726Z,143.00
2022-09-23T14:20:55.526Z,133.25
2022-09-23T14:22:28.414Z,123.00
2022-09-23T14:24:11.056Z,140.00
2022-09-23T14:25:44.387Z,134.00
2022-09-23T14:27:18.176Z,142.75
2022-09-23T14:28:49.944Z,139.75
2022-09-23T14:30:21.640Z,135.20
2022-09-23T14:32:00.244Z,122.50
2022-09-23T14:33:32.824Z,139.75
2022-09-23T14:35:06.706Z,132.00
2022-09-23T14:36:56.940Z,141.25
2022-09-23T14:38:47.342Z,138.00
2022-09-23T14:40:20.738Z,139.75
2022-09-23T14:41:52.423Z,136.00
2022-09-23T14:43:24.886Z,131.75
2022-09-23T14:44:56.515Z,132.75
2022-09-23T14:46:30.257Z,132.00
2022-09-23T14:48:06.524Z,145.50
2022-09-23T14:49:58.151Z,138.75
2022-09-23T14:51:31.699Z,143.00
2022-09-23T14:53:04.285Z,137.25
2022-09-23T14:54:38.841Z,146.50
2022-09-23T14:56:15.861Z,139.75
2022-09-23T14:57:47.558Z,152.75
2022-09-23T14:59:52.244Z,151.75
2022-09-23T15:01:39.366Z,133.25
2022-09-23T15:03:14.712Z,155.25
2022-09-23T15:04:46.384Z,130.50
2022-09-23T15:06:18.185Z,141.75
2022-09-23T15:07:51.634Z,148.50
2022-09-23T15:09:29.881Z,145.75
2022-09-23T15:11:07.886Z,136.75
2022-09-23T15:12:40.121Z,133.00
2022-09-23T15:14:36.138Z,151.25
2022-09-23T15:16:04.802Z,153.25
2022-09-23T15:17:36.471Z,151.50
2022-09-23T15:19:14.871Z,152.25
2022-09-23T15:20:52.294Z,148.75
2022-09-23T15:22:26.967Z,125.50
2022-09-23T15:23:58.814Z,137.50
2022-09-23T15:25:32.031Z,112.75
2022-09-23T15:27:10.514Z,124.00
2022-09-23T15:28:43.713Z,132.25
2022-09-23T15:30:17.353Z,137.75
2022-09-23T15:31:49.110Z,130.25
2022-09-23T15:33:26.927Z,128.75
2022-09-23T15:34:58.585Z,204.00
2022-09-23T15:36:30.306Z,223.67
2022-09-23T15:38:03.298Z,229.33
2022-09-23T15:39:36.362Z,227.00
2022-09-23T15:41:08.485Z,192.25
2022-09-23T15:42:40.744Z,190.00
2022-09-23T15:44:17.076Z,170.25
2022-09-23T15:45:51.946Z,115.80
2022-09-23T15:47:23.619Z,105.60
2022-09-23T15:49:03.007Z,99.50
2022-09-23T15:50:35.905Z,103.50
2022-09-23T15:52:10.587Z,110.75
2022-09-23T15:53:42.619Z,96.00
2022-09-23T15:55:18.726Z,116.80
2022-09-23T15:56:51.912Z,114.75
2022-09-23T15:58:25.345Z,114.00
2022-09-23T15:59:58.661Z,107.00
2022-09-23T16:01:31.899Z,113.40
2022-09-23T16:03:06.771Z,109.50
2022-09-23T16:04:38.933Z,107.75
2022-09-23T16:06:12.311Z,99.50
2022-09-23T16:07:47.534Z,104.25
2022-09-23T16:09:20.879Z,105.00
2022-09-23T16:10:55.179Z,108.25
2022-09-23T16:12:27.145Z,103.50
2022-09-23T16:14:00.536Z,102.50
2022-09-23T16:15:32.609Z,100.25
2022-09-23T16:17:05.314Z,97.50
2022-09-23T16:18:38.242Z,95.00
2022-09-23T16:20:10.653Z,98.25
2022-09-23T16:21:42.376Z,97.75
2022-09-23T16:23:18.250Z,89.50
2022-09-23T16:24:49.908Z,90.75
2022-09-23T16:26:26.083Z,98.00
2022-09-23T16:27:58.187Z,97.00
2022-09-23T16:29:30.044Z,88.00
2022-09-23T16:31:01.719Z,79.25
2022-09-23T16:32:33.344Z,89.00
2022-09-23T16:34:05.168Z,86.75
2022-09-23T16:35:36.794Z,87.75
2022-09-23T16:37:12.246Z,85.75
2022-09-23T16:38:43.956Z,85.75
2022-09-23T16:40:18.262Z,84.25
2022-09-23T16:41:49.989Z,82.75
2022-09-23T16:43:22.181Z,81.75
2022-09-23T16:44:53.855Z,82.75
2022-09-23T16:46:25.661Z,85.50
2022-09-23T16:47:57.297Z,81.25
2022-09-23T16:49:29.011Z,80.50
2022-09-23T16:51:04.817Z,75.50
2022-09-23T16:52:36.497Z,85.00
2022-09-23T16:54:10.372Z,76.25
2022-09-23T16:55:42.151Z,80.00
2022-09-23T16:57:14.018Z,77.50
2022-09-23T16:58:45.799Z,78.25
2022-09-23T17:00:36.316Z,80.25
2022-09-23T17:02:28.144Z,80.75
2022-09-23T17:03:59.787Z,79.00
2022-09-23T17:05:31.450Z,79.75
2022-09-23T17:07:03.169Z,78.75
2022-09-23T17:08:34.853Z,78.00
2022-09-23T17:10:07.102Z,78.25
2022-09-23T17:11:38.796Z,76.25
2022-09-23T17:13:11.550Z,77.75
2022-09-23T17:14:43.759Z,75.75
2022-09-23T17:16:29.268Z,71.50
2022-09-23T17:18:01.195Z,74.25
2022-09-23T17:19:34.108Z,78.25
2022-09-23T17:21:06.901Z,73.50
2022-09-23T17:22:38.559Z,70.25
2022-09-23T17:24:10.217Z,73.50
2022-09-23T17:25:47.884Z,68.75
2022-09-23T17:27:19.588Z,73.50
2022-09-23T17:28:51.772Z,72.50
2022-09-23T17:30:23.599Z,71.75
2022-09-23T17:31:56.005Z,71.00
2022-09-23T17:33:28.467Z,75.25
2022-09-23T17:35:04.484Z,70.50
2022-09-23T17:36:36.136Z,65.40
2022-09-23T17:38:07.770Z,69.20
2022-09-23T17:39:39.627Z,69.20
2022-09-23T17:41:11.934Z,69.00
2022-09-23T17:42:44.747Z,64.80
2022-09-23T17:44:17.704Z,67.20
2022-09-23T17:45:50.059Z,66.00
2022-09-23T17:47:24.419Z,68.80
2022-09-23T17:48:56.338Z,64.60
2022-09-23T17:50:28.173Z,62.80
2022-09-23T17:52:03.332Z,63.20
2022-09-23T17:53:37.245Z,63.40
2022-09-23T17:55:09.145Z,66.20
2022-09-23T17:56:41.293Z,59.00
2022-09-23T17:58:12.982Z,64.20
2022-09-23T17:59:44.612Z,69.20
2022-09-23T18:01:24.003Z,59.80
2022-09-23T18:02:55.753Z,61.60
2022-09-23T18:04:27.431Z,58.40
2022-09-23T18:06:13.525Z,59.40
2022-09-23T18:07:45.203Z,56.80
2022-09-23T18:09:17.163Z,59.80
2022-09-23T18:10:48.863Z,64.20
2022-09-23T18:12:20.586Z,60.60
2022-09-23T18:13:59.725Z,56.40
2022-09-23T18:15:31.347Z,59.20
2022-09-23T18:17:03.070Z,63.40
2022-09-23T18:18:34.798Z,57.60
2022-09-23T18:20:07.015Z,57.60
2022-09-23T18:21:40.759Z,57.00
2022-09-23T18:23:12.565Z,57.00
2022-09-23T18:24:44.479Z,54.60
2022-09-23T18:26:17.146Z,57.00
2022-09-23T18:27:49.039Z,59.40
2022-09-23T18:29:20.702Z,52.00
2022-09-23T18:30:54.214Z,60.40
2022-09-23T18:32:26.004Z,62.80
2022-09-23T18:33:58.172Z,60.40
2022-09-23T18:35:30.748Z,60.40
2022-09-23T18:37:02.474Z,62.40
2022-09-23T18:38:34.272Z,59.20
2022-09-23T18:40:08.510Z,47.80
2022-09-23T18:41:42.160Z,58.60
2022-09-23T18:43:18.337Z,57.20
2022-09-23T18:44:54.440Z,57.80
2022-09-23T18:46:29.439Z,55.60
2022-09-23T18:48:19.879Z,56.60
2022-09-23T18:50:10.161Z,56.60
2022-09-23T18:51:55.674Z,49.00
2022-09-23T18:53:27.592Z,50.60
2022-09-23T18:55:01.244Z,54.60
2022-09-23T18:56:39.849Z,53.40
2022-09-23T18:58:13.320Z,53.40
2022-09-23T18:59:47.310Z,56.80
2022-09-23T19:01:19.989Z,52.80
2022-09-23T19:02:52.401Z,52.20
2022-09-23T19:04:25.031Z,54.80
2022-09-23T19:06:01.758Z,49.00
2022-09-23T19:07:33.426Z,49.80
2022-09-23T19:09:05.602Z,53.40
2022-09-23T19:10:37.252Z,46.80
2022-09-23T19:12:09.064Z,53.80
2022-09-23T19:13:40.790Z,52.80
2022-09-23T19:15:12.948Z,54.40
2022-09-23T19:16:45.421Z,53.00
2022-09-23T19:18:19.764Z,53.00
2022-09-23T19:19:51.496Z,49.00
2022-09-23T19:21:23.400Z,52.60
2022-09-23T19:22:55.017Z,56.60
2022-09-23T19:24:27.663Z,53.60
2022-09-23T19:26:04.311Z,55.00
2022-09-23T19:27:36.042Z,49.80
2022-09-23T19:29:08.779Z,54.60
2022-09-23T19:30:40.535Z,55.20
2022-09-23T19:32:16.037Z,61.20
2022-09-23T19:33:56.860Z,72.00
2022-09-23T19:35:29.504Z,67.25
2022-09-23T19:37:04.594Z,69.60
2022-09-23T19:38:37.444Z,58.60
2022-09-23T19:40:09.592Z,62.40
2022-09-23T19:41:41.275Z,62.20
2022-09-23T19:43:13.115Z,58.20
2022-09-23T19:44:44.758Z,51.80
2022-09-23T19:46:16.524Z,54.00
2022-09-23T19:47:56.373Z,49.20
2022-09-23T19:49:28.577Z,56.40
2022-09-23T19:51:01.081Z,51.80
2022-09-23T19:52:32.750Z,55.20
2022-09-23T19:54:05.185Z,58.00
2022-09-23T19:55:37.131Z,64.60
2022-09-23T19:57:09.328Z,66.20
2022-09-23T19:58:42.279Z,66.80
2022-09-23T20:00:15.276Z,66.60
2022-09-23T20:01:48.077Z,74.75
2022-09-23T20:03:19.938Z,74.00
2022-09-23T20:04:51.599Z,75.75
2022-09-23T20:06:23.283Z,77.00
2022-09-23T20:07:55.626Z,84.75
2022-09-23T20:09:29.022Z,82.50
2022-09-23T20:11:11.158Z,88.25
2022-09-23T20:12:43.983Z,99.00
2022-09-23T20:14:15.725Z,102.75
2022-09-23T20:15:48.356Z,108.00
2022-09-23T20:17:20.769Z,107.75
2022-09-23T20:18:53.063Z,111.00
2022-09-23T20:20:24.774Z,125.60
2022-09-23T20:22:16.606Z,130.25
2022-09-23T20:23:48.260Z,125.20
2022-09-23T20:25:19.902Z,142.75
2022-09-23T20:27:09.772Z,138.75
2022-09-23T20:28:41.427Z,140.00
2022-09-23T20:30:13.197Z,145.00
2022-09-23T20:31:44.943Z,152.00
2022-09-23T20:33:16.738Z,154.50
2022-09-23T20:34:49.605Z,165.50
2022-09-23T20:36:21.807Z,153.75
2022-09-23T20:37:53.463Z,159.25
2022-09-23T20:39:25.112Z,177.00
2022-09-23T20:40:57.123Z,171.50
2022-09-23T20:42:28.764Z,161.75
2022-09-23T20:44:00.616Z,183.00
2022-09-23T20:45:32.351Z,164.00
2022-09-23T20:47:04.214Z,170.25
2022-09-23T20:48:35.896Z,181.50
2022-09-23T20:50:07.972Z,193.50
2022-09-23T20:51:39.843Z,190.50
2022-09-23T20:53:11.497Z,194.75
2022-09-23T20:54:43.220Z,197.50
2022-09-23T20:56:16.518Z,185.50
2022-09-23T20:57:48.701Z,187.75
2022-09-23T20:59:20.379Z,193.50
2022-09-23T21:00:52.081Z,202.25
2022-09-23T21:02:25.452Z,182.00
2022-09-23T21:03:57.195Z,190.00
2022-09-23T21:05:28.824Z,182.75
2022-09-23T21:07:01.406Z,182.50
2022-09-23T21:08:33.792Z,198.00
2022-09-23T21:10:07.387Z,189.50
2022-09-23T21:11:39.075Z,192.00
2022-09-23T21:13:10.704Z,179.75
2022-09-23T21:14:42.352Z,182.50
2022-09-23T21:16:16.001Z,178.25
2022-09-23T21:17:47.781Z,183.00
2022-09-23T21:19:19.830Z,176.75
2022-09-23T21:20:57.876Z,167.50
2022-09-23T21:22:29.550Z,160.00
2022-09-23T21:24:24.475Z,186.50
2022-09-23T21:25:59.836Z,174.25
2022-09-23T21:27:31.449Z,166.50
2022-09-23T21:29:03.183Z,170.50
2022-09-23T21:30:35.155Z,159.50
2022-09-23T21:32:06.806Z,167.00
2022-09-23T21:33:38.503Z,158.75
2022-09-23T21:35:10.128Z,162.50
2022-09-23T21:36:46.241Z,154.25
2022-09-23T21:38:17.912Z,139.75
2022-09-23T21:40:08.321Z,159.00
2022-09-23T21:41:40.222Z,153.50
2022-09-23T21:43:12.359Z,157.75
2022-09-23T21:44:44.037Z,142.00
2022-09-23T21:46:20.136Z,153.25
2022-09-23T21:47:52.046Z,153.75
2022-09-23T21:49:23.690Z,162.50
2022-09-23T21:50:59.464Z,160.25
2022-09-23T21:52:31.103Z,158.50
2022-09-23T21:54:02.759Z,168.75
2022-09-23T21:55:34.379Z,148.75
2022-09-23T21:57:06.259Z,165.00
2022-09-23T21:58:38.527Z,156.00
2022-09-23T22:00:10.668Z,157.25
2022-09-23T22:01:44.920Z,155.00
2022-09-23T22:03:16.911Z,153.50
2022-09-23T22:04:48.552Z,145.50
2022-09-23T22:06:21.939Z,144.25
2022-09-23T22:07:54.274Z,149.25
2022-09-23T22:09:26.047Z,146.25
2022-09-23T22:10:57.750Z,150.25
2022-09-23T22:12:29.372Z,149.50
2022-09-23T22:14:02.530Z,159.25
2022-09-23T22:15:37.481Z,141.50
2022-09-23T22:17:10.814Z,142.50
2022-09-23T22:18:42.485Z,145.25
2022-09-23T22:20:15.717Z,153.25
2022-09-23T22:21:47.381Z,147.50
2022-09-23T22:23:19.698Z,137.50
2022-09-23T22:24:51.959Z,132.75
2022-09-23T22:26:24.341Z,138.75
2022-09-23T22:28:14.639Z,140.75
2022-09-23T22:30:15.346Z,129.60
2022-09-23T22:32:05.754Z,122.20
2022-09-23T22:33:37.473Z,127.40
